sensor_id;sensor_type;location;lat;lon;timestamp;P1;durP1;ratioP1;P2;durP2;ratioP2
4754;SDS011;2391;47.212;7.542;2023-06-19T00:01:59;5.80;;;5.30;;
4754;SDS011;2391;47.212;7.542;2023-06-19T00:04:25;6.67;;;5.43;;
4754;SDS011;2391;47.212;7.542;2023-06-19T00:06:52;8.20;;;6.13;;
4754;SDS011;2391;47.212;7.542;2023-06-19T00:09:18;6.97;;;5.53;;
4754;SDS011;2391;47.212;7.542;2023-06-19T00:11:44;10.40;;;5.63;;
4754;SDS011;2391;47.212;7.542;2023-06-19T00:14:10;5.70;;;5.10;;
4754;SDS011;2391;47.212;7.542;2023-06-19T00:16:35;7.80;;;5.87;;
4754;SDS011;2391;47.212;7.542;2023-06-19T00:19:01;6.20;;;5.60;;
4754;SDS011;2391;47.212;7.542;2023-06-19T00:21:29;5.87;;;5.27;;
4754;SDS011;2391;47.212;7.542;2023-06-19T00:23:55;6.40;;;5.67;;
4754;SDS011;2391;47.212;7.542;2023-06-19T00:26:21;6.10;;;5.17;;
4754;SDS011;2391;47.212;7.542;2023-06-19T00:28:48;6.33;;;5.73;;
4754;SDS011;2391;47.212;7.542;2023-06-19T00:31:15;7.60;;;5.80;;
4754;SDS011;2391;47.212;7.542;2023-06-19T00:33:43;6.17;;;5.50;;
4754;SDS011;2391;47.212;7.542;2023-06-19T00:36:11;6.20;;;5.60;;
4754;SDS011;2391;47.212;7.542;2023-06-19T00:38:38;5.57;;;5.07;;
4754;SDS011;2391;47.212;7.542;2023-06-19T00:41:04;7.83;;;5.63;;
4754;SDS011;2391;47.212;7.542;2023-06-19T00:43:31;6.17;;;5.57;;
4754;SDS011;2391;47.212;7.542;2023-06-19T00:45:58;6.60;;;5.40;;
4754;SDS011;2391;47.212;7.542;2023-06-19T00:48:25;6.23;;;5.10;;
4754;SDS011;2391;47.212;7.542;2023-06-19T00:50:52;5.90;;;5.33;;
4754;SDS011;2391;47.212;7.542;2023-06-19T00:53:18;7.93;;;5.50;;
4754;SDS011;2391;47.212;7.542;2023-06-19T00:55:45;15.37;;;5.87;;
4754;SDS011;2391;47.212;7.542;2023-06-19T00:58:12;9.67;;;6.37;;
4754;SDS011;2391;47.212;7.542;2023-06-19T01:00:38;7.60;;;6.00;;
4754;SDS011;2391;47.212;7.542;2023-06-19T01:03:04;5.40;;;4.90;;
4754;SDS011;2391;47.212;7.542;2023-06-19T01:05:33;6.20;;;5.13;;
4754;SDS011;2391;47.212;7.542;2023-06-19T01:08:09;6.70;;;5.47;;
4754;SDS011;2391;47.212;7.542;2023-06-19T01:10:52;6.70;;;6.00;;
4754;SDS011;2391;47.212;7.542;2023-06-19T01:13:28;6.43;;;5.67;;
4754;SDS011;2391;47.212;7.542;2023-06-19T01:16:02;5.53;;;4.80;;
4754;SDS011;2391;47.212;7.542;2023-06-19T01:18:30;6.30;;;3.80;;
4754;SDS011;2391;47.212;7.542;2023-06-19T01:20:56;3.63;;;3.10;;
4754;SDS011;2391;47.212;7.542;2023-06-19T01:23:21;3.20;;;3.00;;
4754;SDS011;2391;47.212;7.542;2023-06-19T01:25:47;3.80;;;3.50;;
4754;SDS011;2391;47.212;7.542;2023-06-19T01:28:13;3.17;;;2.97;;
4754;SDS011;2391;47.212;7.542;2023-06-19T01:30:40;3.57;;;3.37;;
4754;SDS011;2391;47.212;7.542;2023-06-19T01:33:18;4.07;;;3.67;;
4754;SDS011;2391;47.212;7.542;2023-06-19T01:35:46;4.53;;;4.23;;
4754;SDS011;2391;47.212;7.542;2023-06-19T01:38:13;6.93;;;5.27;;
4754;SDS011;2391;47.212;7.542;2023-06-19T01:40:40;7.00;;;5.30;;
4754;SDS011;2391;47.212;7.542;2023-06-19T01:43:08;6.17;;;5.57;;
4754;SDS011;2391;47.212;7.542;2023-06-19T01:45:35;5.53;;;4.63;;
4754;SDS011;2391;47.212;7.542;2023-06-19T01:48:01;5.23;;;4.83;;
4754;SDS011;2391;47.212;7.542;2023-06-19T01:50:28;5.77;;;5.27;;
4754;SDS011;2391;47.212;7.542;2023-06-19T01:52:54;6.63;;;5.70;;
4754;SDS011;2391;47.212;7.542;2023-06-19T01:55:19;7.00;;;5.00;;
4754;SDS011;2391;47.212;7.542;2023-06-19T01:57:45;7.00;;;6.00;;
4754;SDS011;2391;47.212;7.542;2023-06-19T02:00:11;6.63;;;5.93;;
4754;SDS011;2391;47.212;7.542;2023-06-19T02:02:38;7.00;;;5.20;;
4754;SDS011;2391;47.212;7.542;2023-06-19T02:05:04;6.27;;;5.67;;
4754;SDS011;2391;47.212;7.542;2023-06-19T02:07:30;7.00;;;5.60;;
4754;SDS011;2391;47.212;7.542;2023-06-19T02:09:58;6.00;;;5.50;;
4754;SDS011;2391;47.212;7.542;2023-06-19T02:12:24;7.40;;;6.37;;
4754;SDS011;2391;47.212;7.542;2023-06-19T02:14:50;11.40;;;5.90;;
4754;SDS011;2391;47.212;7.542;2023-06-19T02:17:16;6.67;;;6.00;;
4754;SDS011;2391;47.212;7.542;2023-06-19T02:19:41;12.80;;;6.67;;
4754;SDS011;2391;47.212;7.542;2023-06-19T02:22:08;13.50;;;6.17;;
4754;SDS011;2391;47.212;7.542;2023-06-19T02:24:33;8.03;;;6.33;;
4754;SDS011;2391;47.212;7.542;2023-06-19T02:26:59;6.50;;;5.50;;
4754;SDS011;2391;47.212;7.542;2023-06-19T02:29:27;7.10;;;5.83;;
4754;SDS011;2391;47.212;7.542;2023-06-19T02:31:54;5.33;;;4.83;;
4754;SDS011;2391;47.212;7.542;2023-06-19T02:34:20;7.93;;;6.20;;
4754;SDS011;2391;47.212;7.542;2023-06-19T02:36:48;10.37;;;6.30;;
4754;SDS011;2391;47.212;7.542;2023-06-19T02:39:13;7.70;;;5.30;;
4754;SDS011;2391;47.212;7.542;2023-06-19T02:41:39;10.37;;;5.20;;
4754;SDS011;2391;47.212;7.542;2023-06-19T02:44:07;7.67;;;5.80;;
4754;SDS011;2391;47.212;7.542;2023-06-19T02:46:33;8.63;;;5.93;;
4754;SDS011;2391;47.212;7.542;2023-06-19T02:48:58;5.90;;;5.50;;
4754;SDS011;2391;47.212;7.542;2023-06-19T02:51:25;6.90;;;5.90;;
4754;SDS011;2391;47.212;7.542;2023-06-19T02:53:50;6.00;;;5.40;;
4754;SDS011;2391;47.212;7.542;2023-06-19T02:56:16;7.00;;;5.57;;
4754;SDS011;2391;47.212;7.542;2023-06-19T02:58:42;7.57;;;5.60;;
4754;SDS011;2391;47.212;7.542;2023-06-19T03:01:07;6.33;;;5.57;;
4754;SDS011;2391;47.212;7.542;2023-06-19T03:03:34;10.70;;;6.30;;
4754;SDS011;2391;47.212;7.542;2023-06-19T03:06:01;6.93;;;5.50;;
4754;SDS011;2391;47.212;7.542;2023-06-19T03:08:27;6.33;;;5.73;;
4754;SDS011;2391;47.212;7.542;2023-06-19T03:10:53;7.83;;;5.70;;
4754;SDS011;2391;47.212;7.542;2023-06-19T03:13:18;5.70;;;4.80;;
4754;SDS011;2391;47.212;7.542;2023-06-19T03:15:47;8.00;;;5.10;;
4754;SDS011;2391;47.212;7.542;2023-06-19T03:18:12;8.07;;;5.60;;
4754;SDS011;2391;47.212;7.542;2023-06-19T03:20:38;5.27;;;4.77;;
4754;SDS011;2391;47.212;7.542;2023-06-19T03:23:04;6.60;;;5.47;;
4754;SDS011;2391;47.212;7.542;2023-06-19T03:25:30;5.73;;;4.90;;
4754;SDS011;2391;47.212;7.542;2023-06-19T03:27:57;11.93;;;5.20;;
4754;SDS011;2391;47.212;7.542;2023-06-19T03:30:23;5.60;;;4.83;;
4754;SDS011;2391;47.212;7.542;2023-06-19T03:32:49;5.77;;;5.20;;
4754;SDS011;2391;47.212;7.542;2023-06-19T03:35:15;7.27;;;5.80;;
4754;SDS011;2391;47.212;7.542;2023-06-19T03:37:40;6.53;;;4.97;;
4754;SDS011;2391;47.212;7.542;2023-06-19T03:40:07;8.00;;;5.40;;
4754;SDS011;2391;47.212;7.542;2023-06-19T03:42:35;6.83;;;5.23;;
4754;SDS011;2391;47.212;7.542;2023-06-19T03:45:01;9.40;;;5.70;;
4754;SDS011;2391;47.212;7.542;2023-06-19T03:47:27;7.97;;;5.30;;
4754;SDS011;2391;47.212;7.542;2023-06-19T03:49:52;6.97;;;4.20;;
4754;SDS011;2391;47.212;7.542;2023-06-19T03:52:18;8.57;;;6.13;;
4754;SDS011;2391;47.212;7.542;2023-06-19T03:54:44;7.10;;;5.70;;
4754;SDS011;2391;47.212;7.542;2023-06-19T03:57:09;8.50;;;5.70;;
4754;SDS011;2391;47.212;7.542;2023-06-19T03:59:35;5.87;;;5.27;;
4754;SDS011;2391;47.212;7.542;2023-06-19T04:02:01;6.90;;;6.10;;
4754;SDS011;2391;47.212;7.542;2023-06-19T04:04:27;7.00;;;6.10;;
4754;SDS011;2391;47.212;7.542;2023-06-19T04:06:53;8.77;;;6.20;;
4754;SDS011;2391;47.212;7.542;2023-06-19T04:09:18;7.47;;;6.67;;
4754;SDS011;2391;47.212;7.542;2023-06-19T04:11:44;9.67;;;5.60;;
4754;SDS011;2391;47.212;7.542;2023-06-19T04:14:10;10.10;;;5.93;;
4754;SDS011;2391;47.212;7.542;2023-06-19T04:16:36;10.17;;;5.70;;
4754;SDS011;2391;47.212;7.542;2023-06-19T04:19:02;8.63;;;6.17;;
4754;SDS011;2391;47.212;7.542;2023-06-19T04:21:28;9.20;;;5.70;;
4754;SDS011;2391;47.212;7.542;2023-06-19T04:23:54;6.50;;;5.87;;
4754;SDS011;2391;47.212;7.542;2023-06-19T04:26:20;6.07;;;5.00;;
4754;SDS011;2391;47.212;7.542;2023-06-19T04:28:46;6.00;;;5.50;;
4754;SDS011;2391;47.212;7.542;2023-06-19T04:31:12;11.00;;;5.40;;
4754;SDS011;2391;47.212;7.542;2023-06-19T04:33:40;6.13;;;5.53;;
4754;SDS011;2391;47.212;7.542;2023-06-19T04:36:07;7.63;;;5.50;;
4754;SDS011;2391;47.212;7.542;2023-06-19T04:38:34;6.23;;;5.63;;
4754;SDS011;2391;47.212;7.542;2023-06-19T04:41:00;7.33;;;5.90;;
4754;SDS011;2391;47.212;7.542;2023-06-19T04:43:26;9.53;;;5.40;;
4754;SDS011;2391;47.212;7.542;2023-06-19T04:45:52;6.53;;;5.70;;
4754;SDS011;2391;47.212;7.542;2023-06-19T04:48:17;9.13;;;5.87;;
4754;SDS011;2391;47.212;7.542;2023-06-19T04:50:43;6.50;;;5.43;;
4754;SDS011;2391;47.212;7.542;2023-06-19T04:53:09;6.10;;;5.60;;
4754;SDS011;2391;47.212;7.542;2023-06-19T04:55:34;7.13;;;5.53;;
4754;SDS011;2391;47.212;7.542;2023-06-19T04:58:00;11.83;;;6.00;;
4754;SDS011;2391;47.212;7.542;2023-06-19T05:00:26;5.97;;;5.30;;
4754;SDS011;2391;47.212;7.542;2023-06-19T05:02:52;6.33;;;5.73;;
4754;SDS011;2391;47.212;7.542;2023-06-19T05:05:17;5.47;;;5.00;;
4754;SDS011;2391;47.212;7.542;2023-06-19T05:07:44;6.40;;;5.80;;
4754;SDS011;2391;47.212;7.542;2023-06-19T05:10:11;7.30;;;6.63;;
4754;SDS011;2391;47.212;7.542;2023-06-19T05:12:36;6.67;;;5.97;;
4754;SDS011;2391;47.212;7.542;2023-06-19T05:15:03;7.30;;;5.87;;
4754;SDS011;2391;47.212;7.542;2023-06-19T05:17:29;5.93;;;5.43;;
4754;SDS011;2391;47.212;7.542;2023-06-19T05:19:55;7.53;;;6.73;;
4754;SDS011;2391;47.212;7.542;2023-06-19T05:22:20;9.07;;;6.77;;
4754;SDS011;2391;47.212;7.542;2023-06-19T05:24:49;6.87;;;5.97;;
4754;SDS011;2391;47.212;7.542;2023-06-19T05:27:15;9.40;;;6.80;;
4754;SDS011;2391;47.212;7.542;2023-06-19T05:29:40;7.23;;;6.60;;
4754;SDS011;2391;47.212;7.542;2023-06-19T05:32:06;7.43;;;6.70;;
4754;SDS011;2391;47.212;7.542;2023-06-19T05:34:32;10.37;;;7.00;;
4754;SDS011;2391;47.212;7.542;2023-06-19T05:36:58;7.73;;;6.10;;
4754;SDS011;2391;47.212;7.542;2023-06-19T05:39:26;12.17;;;7.10;;
4754;SDS011;2391;47.212;7.542;2023-06-19T05:41:52;8.90;;;8.00;;
4754;SDS011;2391;47.212;7.542;2023-06-19T05:44:17;8.10;;;6.87;;
4754;SDS011;2391;47.212;7.542;2023-06-19T05:46:44;9.97;;;7.33;;
4754;SDS011;2391;47.212;7.542;2023-06-19T05:49:10;9.47;;;6.97;;
4754;SDS011;2391;47.212;7.542;2023-06-19T05:51:36;11.23;;;7.13;;
4754;SDS011;2391;47.212;7.542;2023-06-19T05:54:02;8.43;;;7.40;;
4754;SDS011;2391;47.212;7.542;2023-06-19T05:56:29;9.70;;;6.80;;
4754;SDS011;2391;47.212;7.542;2023-06-19T05:58:56;7.27;;;6.37;;
4754;SDS011;2391;47.212;7.542;2023-06-19T06:01:21;8.07;;;7.27;;
4754;SDS011;2391;47.212;7.542;2023-06-19T06:03:47;10.33;;;8.27;;
4754;SDS011;2391;47.212;7.542;2023-06-19T06:06:13;10.33;;;7.47;;
4754;SDS011;2391;47.212;7.542;2023-06-19T06:08:38;11.80;;;7.57;;
4754;SDS011;2391;47.212;7.542;2023-06-19T06:11:04;7.33;;;6.60;;
4754;SDS011;2391;47.212;7.542;2023-06-19T06:13:30;8.60;;;7.70;;
4754;SDS011;2391;47.212;7.542;2023-06-19T06:15:56;9.80;;;7.60;;
4754;SDS011;2391;47.212;7.542;2023-06-19T06:18:21;9.40;;;8.20;;
4754;SDS011;2391;47.212;7.542;2023-06-19T06:20:47;8.50;;;7.70;;
4754;SDS011;2391;47.212;7.542;2023-06-19T06:23:16;13.37;;;8.57;;
4754;SDS011;2391;47.212;7.542;2023-06-19T06:25:42;12.30;;;9.80;;
4754;SDS011;2391;47.212;7.542;2023-06-19T06:28:07;10.93;;;8.10;;
4754;SDS011;2391;47.212;7.542;2023-06-19T06:30:33;12.83;;;8.60;;
4754;SDS011;2391;47.212;7.542;2023-06-19T06:32:59;10.90;;;9.10;;
4754;SDS011;2391;47.212;7.542;2023-06-19T06:35:24;13.13;;;8.80;;
4754;SDS011;2391;47.212;7.542;2023-06-19T06:37:50;11.17;;;8.93;;
4754;SDS011;2391;47.212;7.542;2023-06-19T06:40:16;9.23;;;8.33;;
4754;SDS011;2391;47.212;7.542;2023-06-19T06:42:55;10.90;;;9.37;;
4754;SDS011;2391;47.212;7.542;2023-06-19T06:45:10;15.80;;;11.20;;
4754;SDS011;2391;47.212;7.542;2023-06-19T06:47:36;10.23;;;8.20;;
4754;SDS011;2391;47.212;7.542;2023-06-19T06:50:01;10.80;;;8.90;;
4754;SDS011;2391;47.212;7.542;2023-06-19T06:52:27;9.30;;;8.40;;
4754;SDS011;2391;47.212;7.542;2023-06-19T06:54:55;9.60;;;8.20;;
4754;SDS011;2391;47.212;7.542;2023-06-19T06:57:21;13.17;;;8.40;;
4754;SDS011;2391;47.212;7.542;2023-06-19T06:59:46;8.97;;;8.07;;
4754;SDS011;2391;47.212;7.542;2023-06-19T07:02:12;9.43;;;7.63;;
4754;SDS011;2391;47.212;7.542;2023-06-19T07:04:38;8.70;;;7.87;;
4754;SDS011;2391;47.212;7.542;2023-06-19T07:07:04;10.03;;;8.37;;
4754;SDS011;2391;47.212;7.542;2023-06-19T07:09:31;8.87;;;7.97;;
4754;SDS011;2391;47.212;7.542;2023-06-19T07:11:57;9.33;;;8.30;;
4754;SDS011;2391;47.212;7.542;2023-06-19T07:14:23;9.40;;;8.40;;
4754;SDS011;2391;47.212;7.542;2023-06-19T07:16:49;9.90;;;8.30;;
4754;SDS011;2391;47.212;7.542;2023-06-19T07:19:15;11.70;;;8.60;;
4754;SDS011;2391;47.212;7.542;2023-06-19T07:21:41;13.73;;;9.00;;
4754;SDS011;2391;47.212;7.542;2023-06-19T07:24:07;13.00;;;9.97;;
4754;SDS011;2391;47.212;7.542;2023-06-19T07:26:33;10.00;;;8.60;;
4754;SDS011;2391;47.212;7.542;2023-06-19T07:28:59;16.37;;;9.13;;
4754;SDS011;2391;47.212;7.542;2023-06-19T07:31:25;13.17;;;8.93;;
4754;SDS011;2391;47.212;7.542;2023-06-19T07:33:51;12.60;;;8.60;;
4754;SDS011;2391;47.212;7.542;2023-06-19T07:36:17;10.37;;;7.93;;
4754;SDS011;2391;47.212;7.542;2023-06-19T07:38:42;9.67;;;8.10;;
4754;SDS011;2391;47.212;7.542;2023-06-19T07:41:09;14.33;;;8.80;;
4754;SDS011;2391;47.212;7.542;2023-06-19T07:43:36;10.20;;;7.60;;
4754;SDS011;2391;47.212;7.542;2023-06-19T07:46:03;10.47;;;8.60;;
4754;SDS011;2391;47.212;7.542;2023-06-19T07:48:29;10.10;;;6.93;;
4754;SDS011;2391;47.212;7.542;2023-06-19T07:50:55;9.37;;;8.37;;
4754;SDS011;2391;47.212;7.542;2023-06-19T07:53:21;11.87;;;7.83;;
4754;SDS011;2391;47.212;7.542;2023-06-19T07:55:47;8.93;;;7.63;;
4754;SDS011;2391;47.212;7.542;2023-06-19T07:58:13;8.20;;;7.37;;
4754;SDS011;2391;47.212;7.542;2023-06-19T08:00:39;7.87;;;7.07;;
4754;SDS011;2391;47.212;7.542;2023-06-19T08:03:05;10.03;;;7.30;;
4754;SDS011;2391;47.212;7.542;2023-06-19T08:05:31;9.00;;;8.10;;
4754;SDS011;2391;47.212;7.542;2023-06-19T08:07:58;9.27;;;7.20;;
4754;SDS011;2391;47.212;7.542;2023-06-19T08:10:24;8.53;;;7.73;;
4754;SDS011;2391;47.212;7.542;2023-06-19T08:12:50;9.03;;;7.70;;
4754;SDS011;2391;47.212;7.542;2023-06-19T08:15:16;8.30;;;7.37;;
4754;SDS011;2391;47.212;7.542;2023-06-19T08:17:42;10.97;;;7.10;;
4754;SDS011;2391;47.212;7.542;2023-06-19T08:20:08;9.80;;;7.20;;
4754;SDS011;2391;47.212;7.542;2023-06-19T08:22:35;9.70;;;6.93;;
4754;SDS011;2391;47.212;7.542;2023-06-19T08:25:01;7.87;;;7.10;;
4754;SDS011;2391;47.212;7.542;2023-06-19T08:27:27;8.83;;;7.40;;
4754;SDS011;2391;47.212;7.542;2023-06-19T08:29:53;8.63;;;7.17;;
4754;SDS011;2391;47.212;7.542;2023-06-19T08:32:18;9.40;;;6.47;;
4754;SDS011;2391;47.212;7.542;2023-06-19T08:34:45;7.60;;;6.80;;
4754;SDS011;2391;47.212;7.542;2023-06-19T08:37:10;8.70;;;7.20;;
4754;SDS011;2391;47.212;7.542;2023-06-19T08:39:36;10.07;;;6.57;;
4754;SDS011;2391;47.212;7.542;2023-06-19T08:42:08;6.47;;;5.47;;
4754;SDS011;2391;47.212;7.542;2023-06-19T08:44:34;6.33;;;5.73;;
4754;SDS011;2391;47.212;7.542;2023-06-19T08:47:01;6.03;;;5.40;;
4754;SDS011;2391;47.212;7.542;2023-06-19T08:49:33;6.47;;;5.83;;
4754;SDS011;2391;47.212;7.542;2023-06-19T08:52:00;12.30;;;6.03;;
4754;SDS011;2391;47.212;7.542;2023-06-19T08:54:26;6.63;;;5.90;;
4754;SDS011;2391;47.212;7.542;2023-06-19T08:56:52;8.03;;;6.10;;
4754;SDS011;2391;47.212;7.542;2023-06-19T08:59:19;7.03;;;5.63;;
4754;SDS011;2391;47.212;7.542;2023-06-19T09:01:48;6.20;;;5.60;;
4754;SDS011;2391;47.212;7.542;2023-06-19T09:04:18;6.87;;;5.67;;
4754;SDS011;2391;47.212;7.542;2023-06-19T09:06:50;6.83;;;4.97;;
4754;SDS011;2391;47.212;7.542;2023-06-19T09:09:23;5.20;;;4.70;;
4754;SDS011;2391;47.212;7.542;2023-06-19T09:12:12;6.20;;;5.60;;
4754;SDS011;2391;47.212;7.542;2023-06-19T09:14:36;6.10;;;5.50;;
4754;SDS011;2391;47.212;7.542;2023-06-19T09:17:04;5.53;;;4.87;;
4754;SDS011;2391;47.212;7.542;2023-06-19T09:19:33;6.03;;;5.00;;
4754;SDS011;2391;47.212;7.542;2023-06-19T09:22:02;8.53;;;5.27;;
4754;SDS011;2391;47.212;7.542;2023-06-19T09:24:48;5.50;;;4.47;;
4754;SDS011;2391;47.212;7.542;2023-06-19T09:27:11;5.30;;;4.80;;
4754;SDS011;2391;47.212;7.542;2023-06-19T09:29:40;4.23;;;3.93;;
4754;SDS011;2391;47.212;7.542;2023-06-19T09:32:26;5.80;;;4.43;;
4754;SDS011;2391;47.212;7.542;2023-06-19T09:34:56;4.93;;;4.43;;
4754;SDS011;2391;47.212;7.542;2023-06-19T09:37:27;4.77;;;4.27;;
4754;SDS011;2391;47.212;7.542;2023-06-19T09:39:55;4.50;;;4.10;;
4754;SDS011;2391;47.212;7.542;2023-06-19T09:42:31;4.50;;;4.20;;
4754;SDS011;2391;47.212;7.542;2023-06-19T09:45:02;5.57;;;4.57;;
4754;SDS011;2391;47.212;7.542;2023-06-19T09:47:31;5.20;;;4.30;;
4754;SDS011;2391;47.212;7.542;2023-06-19T09:49:59;4.97;;;4.43;;
4754;SDS011;2391;47.212;7.542;2023-06-19T09:52:26;5.40;;;4.90;;
4754;SDS011;2391;47.212;7.542;2023-06-19T09:54:53;6.77;;;4.53;;
4754;SDS011;2391;47.212;7.542;2023-06-19T09:57:20;5.17;;;4.77;;
4754;SDS011;2391;47.212;7.542;2023-06-19T09:59:53;7.70;;;5.37;;
4754;SDS011;2391;47.212;7.542;2023-06-19T10:02:21;5.83;;;4.50;;
4754;SDS011;2391;47.212;7.542;2023-06-19T10:04:51;7.40;;;4.83;;
4754;SDS011;2391;47.212;7.542;2023-06-19T10:07:24;4.80;;;4.40;;
4754;SDS011;2391;47.212;7.542;2023-06-19T10:15:09;4.87;;;4.47;;
4754;SDS011;2391;47.212;7.542;2023-06-19T10:17:37;4.90;;;4.13;;
4754;SDS011;2391;47.212;7.542;2023-06-19T10:20:03;4.43;;;4.03;;
4754;SDS011;2391;47.212;7.542;2023-06-19T10:22:31;11.30;;;5.10;;
4754;SDS011;2391;47.212;7.542;2023-06-19T10:24:57;5.87;;;5.00;;
4754;SDS011;2391;47.212;7.542;2023-06-19T10:27:27;5.23;;;4.83;;
4754;SDS011;2391;47.212;7.542;2023-06-19T10:29:53;5.90;;;4.40;;
4754;SDS011;2391;47.212;7.542;2023-06-19T10:32:21;4.73;;;4.23;;
4754;SDS011;2391;47.212;7.542;2023-06-19T10:34:47;5.93;;;4.63;;
4754;SDS011;2391;47.212;7.542;2023-06-19T10:37:16;5.80;;;4.70;;
4754;SDS011;2391;47.212;7.542;2023-06-19T10:39:43;4.67;;;4.23;;
4754;SDS011;2391;47.212;7.542;2023-06-19T10:42:09;5.17;;;4.53;;
4754;SDS011;2391;47.212;7.542;2023-06-19T10:44:36;5.40;;;4.40;;
4754;SDS011;2391;47.212;7.542;2023-06-19T10:47:06;6.60;;;4.40;;
4754;SDS011;2391;47.212;7.542;2023-06-19T10:49:32;4.90;;;4.50;;
4754;SDS011;2391;47.212;7.542;2023-06-19T10:51:59;6.90;;;4.90;;
4754;SDS011;2391;47.212;7.542;2023-06-19T10:54:25;7.50;;;4.87;;
4754;SDS011;2391;47.212;7.542;2023-06-19T10:56:53;5.40;;;5.00;;
4754;SDS011;2391;47.212;7.542;2023-06-19T10:59:19;4.90;;;4.50;;
4754;SDS011;2391;47.212;7.542;2023-06-19T11:01:45;8.63;;;5.00;;
4754;SDS011;2391;47.212;7.542;2023-06-19T11:04:14;5.57;;;4.80;;
4754;SDS011;2391;47.212;7.542;2023-06-19T11:06:41;4.90;;;4.50;;
4754;SDS011;2391;47.212;7.542;2023-06-19T11:09:10;4.90;;;4.50;;
4754;SDS011;2391;47.212;7.542;2023-06-19T11:11:40;5.67;;;5.10;;
4754;SDS011;2391;47.212;7.542;2023-06-19T11:14:11;7.20;;;4.80;;
4754;SDS011;2391;47.212;7.542;2023-06-19T11:16:39;8.17;;;5.47;;
4754;SDS011;2391;47.212;7.542;2023-06-19T11:19:07;5.87;;;4.83;;
4754;SDS011;2391;47.212;7.542;2023-06-19T11:21:35;5.80;;;4.83;;
4754;SDS011;2391;47.212;7.542;2023-06-19T11:24:04;5.60;;;4.53;;
4754;SDS011;2391;47.212;7.542;2023-06-19T11:26:37;7.13;;;4.27;;
4754;SDS011;2391;47.212;7.542;2023-06-19T11:29:24;6.40;;;4.50;;
4754;SDS011;2391;47.212;7.542;2023-06-19T11:31:51;4.83;;;4.33;;
4754;SDS011;2391;47.212;7.542;2023-06-19T11:34:19;6.03;;;4.90;;
4754;SDS011;2391;47.212;7.542;2023-06-19T11:36:45;5.23;;;4.73;;
4754;SDS011;2391;47.212;7.542;2023-06-19T11:39:11;5.27;;;4.40;;
4754;SDS011;2391;47.212;7.542;2023-06-19T11:41:43;5.20;;;4.50;;
4754;SDS011;2391;47.212;7.542;2023-06-19T11:44:09;4.73;;;4.43;;
4754;SDS011;2391;47.212;7.542;2023-06-19T11:46:35;7.10;;;4.80;;
4754;SDS011;2391;47.212;7.542;2023-06-19T11:49:11;6.83;;;4.57;;
4754;SDS011;2391;47.212;7.542;2023-06-19T11:51:39;4.40;;;4.10;;
4754;SDS011;2391;47.212;7.542;2023-06-19T11:54:07;6.43;;;4.67;;
4754;SDS011;2391;47.212;7.542;2023-06-19T11:56:34;5.80;;;4.90;;
4754;SDS011;2391;47.212;7.542;2023-06-19T11:59:01;5.00;;;4.50;;
4754;SDS011;2391;47.212;7.542;2023-06-19T12:01:28;5.10;;;4.70;;
4754;SDS011;2391;47.212;7.542;2023-06-19T12:03:55;4.57;;;4.17;;
4754;SDS011;2391;47.212;7.542;2023-06-19T12:06:21;5.37;;;4.43;;
4754;SDS011;2391;47.212;7.542;2023-06-19T12:08:47;4.97;;;4.07;;
4754;SDS011;2391;47.212;7.542;2023-06-19T12:11:12;6.30;;;4.23;;
4754;SDS011;2391;47.212;7.542;2023-06-19T12:13:40;5.00;;;4.50;;
4754;SDS011;2391;47.212;7.542;2023-06-19T12:16:07;6.17;;;4.50;;
4754;SDS011;2391;47.212;7.542;2023-06-19T12:18:34;4.87;;;4.00;;
4754;SDS011;2391;47.212;7.542;2023-06-19T12:21:00;4.40;;;4.00;;
4754;SDS011;2391;47.212;7.542;2023-06-19T12:23:26;4.73;;;4.13;;
4754;SDS011;2391;47.212;7.542;2023-06-19T12:25:52;4.40;;;4.00;;
4754;SDS011;2391;47.212;7.542;2023-06-19T12:28:18;5.47;;;4.10;;
4754;SDS011;2391;47.212;7.542;2023-06-19T12:30:44;4.60;;;4.27;;
4754;SDS011;2391;47.212;7.542;2023-06-19T12:33:11;4.60;;;4.20;;
4754;SDS011;2391;47.212;7.542;2023-06-19T12:35:40;4.57;;;4.17;;
4754;SDS011;2391;47.212;7.542;2023-06-19T12:38:07;5.20;;;4.70;;
4754;SDS011;2391;47.212;7.542;2023-06-19T12:40:33;5.90;;;4.17;;
4754;SDS011;2391;47.212;7.542;2023-06-19T12:42:59;5.40;;;4.50;;
4754;SDS011;2391;47.212;7.542;2023-06-19T12:45:25;4.87;;;3.97;;
4754;SDS011;2391;47.212;7.542;2023-06-19T12:47:51;6.23;;;4.43;;
4754;SDS011;2391;47.212;7.542;2023-06-19T12:50:17;5.83;;;4.40;;
4754;SDS011;2391;47.212;7.542;2023-06-19T12:52:42;5.60;;;4.30;;
4754;SDS011;2391;47.212;7.542;2023-06-19T12:55:08;4.20;;;3.90;;
4754;SDS011;2391;47.212;7.542;2023-06-19T12:57:34;6.23;;;4.37;;
4754;SDS011;2391;47.212;7.542;2023-06-19T13:00:00;4.50;;;4.10;;
4754;SDS011;2391;47.212;7.542;2023-06-19T13:02:26;5.87;;;4.50;;
4754;SDS011;2391;47.212;7.542;2023-06-19T13:04:52;5.07;;;4.57;;
4754;SDS011;2391;47.212;7.542;2023-06-19T13:07:18;5.10;;;4.50;;
4754;SDS011;2391;47.212;7.542;2023-06-19T13:09:43;5.37;;;4.17;;
4754;SDS011;2391;47.212;7.542;2023-06-19T13:12:09;4.57;;;4.27;;
4754;SDS011;2391;47.212;7.542;2023-06-19T13:14:35;8.37;;;4.60;;
4754;SDS011;2391;47.212;7.542;2023-06-19T13:17:03;5.37;;;4.97;;
4754;SDS011;2391;47.212;7.542;2023-06-19T13:19:28;5.10;;;4.07;;
4754;SDS011;2391;47.212;7.542;2023-06-19T13:21:54;7.00;;;4.33;;
4754;SDS011;2391;47.212;7.542;2023-06-19T13:24:20;5.60;;;4.27;;
4754;SDS011;2391;47.212;7.542;2023-06-19T13:26:46;4.63;;;4.33;;
4754;SDS011;2391;47.212;7.542;2023-06-19T13:29:11;5.40;;;4.70;;
4754;SDS011;2391;47.212;7.542;2023-06-19T13:31:37;5.50;;;4.50;;
4754;SDS011;2391;47.212;7.542;2023-06-19T13:34:03;4.40;;;4.10;;
4754;SDS011;2391;47.212;7.542;2023-06-19T13:36:29;7.83;;;4.00;;
4754;SDS011;2391;47.212;7.542;2023-06-19T13:38:56;5.60;;;3.97;;
4754;SDS011;2391;47.212;7.542;2023-06-19T13:41:22;3.67;;;3.47;;
4754;SDS011;2391;47.212;7.542;2023-06-19T13:43:50;6.13;;;4.67;;
4754;SDS011;2391;47.212;7.542;2023-06-19T13:46:19;4.47;;;4.07;;
4754;SDS011;2391;47.212;7.542;2023-06-19T13:48:47;4.30;;;3.90;;
4754;SDS011;2391;47.212;7.542;2023-06-19T13:51:14;4.23;;;3.93;;
4754;SDS011;2391;47.212;7.542;2023-06-19T13:53:40;5.47;;;4.00;;
4754;SDS011;2391;47.212;7.542;2023-06-19T13:56:06;4.67;;;3.53;;
4754;SDS011;2391;47.212;7.542;2023-06-19T13:58:32;10.33;;;3.63;;
4754;SDS011;2391;47.212;7.542;2023-06-19T14:00:57;4.13;;;3.73;;
4754;SDS011;2391;47.212;7.542;2023-06-19T14:03:23;3.90;;;3.60;;
4754;SDS011;2391;47.212;7.542;2023-06-19T14:05:49;4.30;;;4.00;;
4754;SDS011;2391;47.212;7.542;2023-06-19T14:08:15;5.70;;;3.80;;
4754;SDS011;2391;47.212;7.542;2023-06-19T14:10:41;13.80;;;3.97;;
4754;SDS011;2391;47.212;7.542;2023-06-19T14:13:06;3.80;;;3.50;;
4754;SDS011;2391;47.212;7.542;2023-06-19T14:15:32;3.97;;;3.67;;
4754;SDS011;2391;47.212;7.542;2023-06-19T14:17:58;7.33;;;3.27;;
4754;SDS011;2391;47.212;7.542;2023-06-19T14:20:24;5.63;;;3.53;;
4754;SDS011;2391;47.212;7.542;2023-06-19T14:22:49;4.10;;;3.60;;
4754;SDS011;2391;47.212;7.542;2023-06-19T14:25:15;3.83;;;3.50;;
4754;SDS011;2391;47.212;7.542;2023-06-19T14:27:41;5.47;;;3.80;;
4754;SDS011;2391;47.212;7.542;2023-06-19T14:30:07;4.03;;;3.60;;
4754;SDS011;2391;47.212;7.542;2023-06-19T14:32:34;3.50;;;3.20;;
4754;SDS011;2391;47.212;7.542;2023-06-19T14:35:02;3.73;;;3.53;;
4754;SDS011;2391;47.212;7.542;2023-06-19T14:37:29;3.90;;;3.50;;
4754;SDS011;2391;47.212;7.542;2023-06-19T14:39:55;4.13;;;3.77;;
4754;SDS011;2391;47.212;7.542;2023-06-19T14:42:20;4.37;;;4.07;;
4754;SDS011;2391;47.212;7.542;2023-06-19T14:44:47;4.77;;;4.27;;
4754;SDS011;2391;47.212;7.542;2023-06-19T14:47:12;5.10;;;3.70;;
4754;SDS011;2391;47.212;7.542;2023-06-19T14:49:38;5.13;;;3.77;;
4754;SDS011;2391;47.212;7.542;2023-06-19T14:52:04;4.00;;;3.70;;
4754;SDS011;2391;47.212;7.542;2023-06-19T14:54:31;4.20;;;3.80;;
4754;SDS011;2391;47.212;7.542;2023-06-19T14:56:57;4.43;;;4.03;;
4754;SDS011;2391;47.212;7.542;2023-06-19T14:59:23;9.77;;;3.93;;
4754;SDS011;2391;47.212;7.542;2023-06-19T15:01:50;5.33;;;4.23;;
4754;SDS011;2391;47.212;7.542;2023-06-19T15:04:16;4.10;;;3.70;;
4754;SDS011;2391;47.212;7.542;2023-06-19T15:06:42;5.70;;;3.87;;
4754;SDS011;2391;47.212;7.542;2023-06-19T15:09:07;3.70;;;3.50;;
4754;SDS011;2391;47.212;7.542;2023-06-19T15:11:33;4.13;;;3.83;;
4754;SDS011;2391;47.212;7.542;2023-06-19T15:13:59;4.07;;;3.67;;
4754;SDS011;2391;47.212;7.542;2023-06-19T15:16:25;4.90;;;4.00;;